Columbus, Ohio
Traffic Map
Current Weather Conditions
Columbus, Ohio
Few Clouds
Few Clouds
16°
Feels Like: 16°
Wind Chill: 16° Ceiling: Unl
Heat Index: 16° Visibility: 10mi
Dew Point: 14° Wind: 0mph
Humidity: 90% Direction: ° ()
Pressure: 29.98in Gusts: 0mph
Raw Report DataKCMH 301051Z 00000KT 10SM FEW110 FEW250 16/14 A2998 RMK AO2 SLP148 T01560139
Traffic Incident Summary
Active as of:
Severity:
Category:
InformationThere was an issue retrieving the traffic information for this location. Please try a different location or try again shortly.
Advertisements
Track Severe Weather on mobile